createdAt,value
2019-01-10T00:01:34.779Z,41.83
2019-01-10T00:04:02.773Z,41.91
2019-01-10T00:06:31.772Z,41.81
2019-01-10T00:09:06.799Z,41.74
2019-01-10T00:11:34.845Z,42.00
2019-01-10T00:14:02.695Z,41.84
2019-01-10T00:16:30.601Z,41.95
2019-01-10T00:18:59.304Z,41.98
2019-01-10T00:21:27.536Z,41.83
2019-01-10T00:23:55.748Z,42.13
2019-01-10T00:26:23.589Z,42.32
2019-01-10T00:28:52.792Z,42.30
2019-01-10T00:31:20.771Z,42.14
2019-01-10T00:33:48.602Z,42.06
2019-01-10T00:36:17.753Z,42.48
2019-01-10T00:38:45.768Z,42.13
2019-01-10T00:41:13.689Z,42.13
2019-01-10T00:43:42.763Z,42.02
2019-01-10T00:46:10.698Z,41.82
2019-01-10T00:48:39.787Z,41.40
2019-01-10T00:51:08.325Z,41.80
2019-01-10T00:53:36.791Z,41.08
2019-01-10T00:56:05.781Z,41.88
2019-01-10T00:58:33.845Z,41.98
2019-01-10T01:01:02.356Z,42.15
2019-01-10T01:03:30.888Z,41.87
2019-01-10T01:05:59.789Z,42.07
2019-01-10T01:08:27.714Z,42.07
2019-01-10T01:10:55.702Z,42.05
2019-01-10T01:13:23.701Z,42.05
2019-01-10T01:15:52.638Z,42.39
2019-01-10T01:18:21.921Z,42.15
2019-01-10T01:20:50.806Z,42.07
2019-01-10T01:23:19.857Z,42.07
2019-01-10T01:25:47.831Z,41.79
2019-01-10T01:28:15.792Z,41.48
2019-01-10T01:30:43.778Z,41.48
2019-01-10T01:33:11.760Z,40.85
2019-01-10T01:35:40.344Z,41.66
2019-01-10T01:38:10.807Z,41.58
2019-01-10T01:40:39.991Z,41.60
2019-01-10T01:45:11.528Z,41.79
2019-01-10T01:47:38.994Z,41.80
2019-01-10T01:50:14.009Z,41.85
2019-01-10T01:52:41.397Z,41.96
2019-01-10T01:55:08.950Z,41.69
2019-01-10T01:57:37.257Z,41.79
2019-01-10T02:00:09.254Z,41.91
2019-01-10T02:02:36.698Z,42.22
2019-01-10T02:05:03.969Z,41.93
2019-01-10T02:07:31.429Z,42.07
2019-01-10T02:09:59.989Z,42.09
2019-01-10T02:12:28.343Z,41.56
2019-01-10T02:14:56.956Z,41.58
2019-01-10T02:17:26.430Z,41.65
2019-01-10T02:19:54.276Z,41.29
2019-01-10T02:22:22.729Z,41.53
2019-01-10T02:24:50.909Z,41.75
2019-01-10T02:27:19.430Z,41.94
2019-01-10T02:29:47.420Z,41.75
2019-01-10T02:32:16.055Z,41.87
2019-01-10T02:34:44.439Z,42.00
2019-01-10T02:37:12.507Z,41.71
2019-01-10T02:39:40.625Z,41.91
2019-01-10T02:42:09.251Z,41.37
2019-01-10T02:44:37.619Z,41.98
2019-01-10T02:47:05.852Z,42.00
2019-01-10T02:49:34.254Z,41.58
2019-01-10T02:52:01.815Z,41.61
2019-01-10T02:54:30.252Z,41.54
2019-01-10T02:56:57.877Z,41.80
2019-01-10T02:59:25.251Z,40.97
2019-01-10T03:01:52.787Z,40.97
2019-01-10T03:04:19.753Z,41.14
2019-01-10T03:06:47.107Z,41.61
2019-01-10T03:09:14.750Z,41.70
2019-01-10T03:11:42.120Z,41.72
2019-01-10T03:14:09.413Z,42.23
2019-01-10T03:16:36.621Z,42.45
2019-01-10T03:19:04.262Z,40.30
2019-01-10T03:21:31.466Z,40.23
2019-01-10T03:23:58.752Z,40.56
2019-01-10T03:26:26.248Z,40.58
2019-01-10T03:28:54.109Z,40.80
2019-01-10T03:31:21.752Z,40.96
2019-01-10T03:33:49.251Z,40.85
2019-01-10T03:36:17.076Z,40.80
2019-01-10T03:38:45.257Z,40.53
2019-01-10T03:41:12.808Z,40.53
2019-01-10T03:43:47.434Z,40.19
2019-01-10T03:46:14.881Z,40.47
2019-01-10T03:48:42.462Z,40.78
2019-01-10T03:51:10.446Z,40.78
2019-01-10T03:53:37.996Z,40.79
2019-01-10T03:56:05.687Z,40.85
2019-01-10T03:58:33.493Z,40.79
2019-01-10T04:01:01.054Z,40.99
2019-01-10T04:03:28.486Z,41.36
2019-01-10T04:05:55.778Z,41.17
2019-01-10T04:08:22.659Z,41.02
2019-01-10T04:10:50.254Z,41.31
2019-01-10T04:13:17.703Z,41.36
2019-01-10T04:15:44.974Z,41.07
2019-01-10T04:18:12.467Z,41.20
2019-01-10T04:20:39.824Z,41.14
2019-01-10T04:23:08.104Z,40.99
2019-01-10T04:25:35.631Z,40.71
2019-01-10T04:28:02.880Z,40.99
2019-01-10T04:30:30.741Z,40.57
2019-01-10T04:32:58.532Z,40.57
2019-01-10T04:35:26.079Z,41.15
2019-01-10T04:37:54.467Z,41.05
2019-01-10T04:40:21.962Z,41.20
2019-01-10T04:42:49.418Z,41.22
2019-01-10T04:45:16.753Z,41.20
2019-01-10T04:47:43.631Z,41.55
2019-01-10T04:50:11.065Z,41.50
2019-01-10T04:52:41.450Z,41.71
2019-01-10T04:55:09.489Z,41.89
2019-01-10T04:57:36.834Z,41.67
2019-01-10T05:00:10.116Z,41.57
2019-01-10T05:02:37.462Z,41.57
2019-01-10T05:05:05.438Z,41.91
2019-01-10T05:07:33.366Z,41.28
2019-01-10T05:10:00.804Z,41.35
2019-01-10T05:12:28.100Z,41.34
2019-01-10T05:14:55.909Z,40.84
2019-01-10T05:17:23.461Z,41.52
2019-01-10T05:19:50.774Z,41.52
2019-01-10T05:22:18.338Z,41.43
2019-01-10T05:24:46.106Z,41.58
2019-01-10T05:27:13.897Z,41.90
2019-01-10T05:29:41.468Z,41.92
2019-01-10T05:32:08.785Z,41.92
2019-01-10T05:34:35.986Z,41.71
2019-01-10T05:37:03.368Z,41.93
2019-01-10T05:39:30.662Z,42.13
2019-01-10T05:41:58.638Z,42.19
2019-01-10T05:44:27.052Z,42.20
2019-01-10T05:46:55.088Z,41.73
2019-01-10T05:49:23.252Z,41.69
2019-01-10T05:51:51.441Z,41.72
2019-01-10T05:54:20.636Z,41.15
2019-01-10T05:56:48.257Z,41.55
2019-01-10T05:59:15.506Z,41.17
2019-01-10T06:01:43.444Z,41.38
2019-01-10T06:04:10.781Z,41.52
2019-01-10T06:06:37.990Z,41.70
2019-01-10T06:09:08.511Z,41.52
2019-01-10T06:11:35.841Z,41.68
2019-01-10T06:14:03.472Z,42.20
2019-01-10T06:16:30.777Z,42.28
2019-01-10T06:18:57.954Z,42.12
2019-01-10T06:21:25.923Z,41.99
2019-01-10T06:23:54.457Z,42.06
2019-01-10T06:26:21.957Z,42.25
2019-01-10T06:28:49.258Z,41.83
2019-01-10T06:31:16.797Z,41.65
2019-01-10T06:33:44.625Z,41.33
2019-01-10T06:36:11.840Z,41.32
2019-01-10T06:38:39.255Z,41.69
2019-01-10T06:41:07.353Z,41.69
2019-01-10T06:43:34.627Z,40.95
2019-01-10T06:46:02.536Z,41.07
2019-01-10T06:48:29.831Z,41.62
2019-01-10T06:50:57.750Z,41.75
2019-01-10T06:53:25.001Z,42.17
2019-01-10T06:55:52.725Z,41.83
2019-01-10T06:58:19.914Z,41.90
2019-01-10T07:00:47.783Z,41.84
2019-01-10T07:03:15.373Z,42.11
2019-01-10T07:05:42.902Z,42.17
2019-01-10T07:08:10.255Z,41.78
2019-01-10T07:10:37.466Z,41.78
2019-01-10T07:13:05.446Z,41.98
2019-01-10T07:15:33.375Z,41.83
2019-01-10T07:18:01.098Z,41.66
2019-01-10T07:20:28.562Z,41.32
2019-01-10T07:22:55.802Z,41.18
2019-01-10T07:25:23.934Z,41.18
2019-01-10T07:27:51.946Z,40.80
2019-01-10T07:30:25.438Z,40.71
2019-01-10T07:32:53.011Z,41.30
2019-01-10T07:35:20.412Z,41.54
2019-01-10T07:37:52.753Z,41.61
2019-01-10T07:40:20.616Z,41.48
2019-01-10T07:42:48.244Z,42.11
2019-01-10T07:45:18.750Z,42.31
2019-01-10T07:47:49.363Z,41.71
2019-01-10T07:50:27.914Z,42.02
2019-01-10T07:52:55.248Z,42.26
2019-01-10T07:55:22.601Z,41.59
2019-01-10T07:57:50.429Z,41.60
2019-01-10T08:00:18.248Z,41.48
2019-01-10T08:02:45.480Z,41.25
2019-01-10T08:05:12.881Z,40.94
2019-01-10T08:07:40.248Z,41.26
2019-01-10T08:10:11.514Z,41.26
2019-01-10T08:12:39.015Z,41.90
2019-01-10T08:15:11.939Z,41.84
2019-01-10T08:17:38.754Z,42.10
2019-01-10T08:20:06.024Z,42.22
2019-01-10T08:22:33.615Z,42.33
2019-01-10T08:25:00.896Z,42.23
2019-01-10T08:27:28.479Z,42.63
2019-01-10T08:29:55.774Z,42.63
2019-01-10T08:32:22.635Z,42.93
2019-01-10T08:34:51.321Z,42.92
2019-01-10T08:37:18.914Z,42.26
2019-01-10T08:39:46.626Z,42.04
2019-01-10T08:42:14.250Z,41.93
2019-01-10T08:44:41.686Z,41.84
2019-01-10T08:47:08.978Z,41.70
2019-01-10T08:49:36.600Z,41.12
2019-01-10T08:52:03.915Z,41.21
2019-01-10T08:54:31.380Z,41.78
2019-01-10T08:56:58.775Z,41.93
2019-01-10T08:59:28.070Z,42.05
2019-01-10T09:01:56.382Z,42.07
2019-01-10T09:04:24.009Z,42.11
2019-01-10T09:06:51.973Z,42.43
2019-01-10T09:09:19.253Z,42.42
2019-01-10T09:11:47.214Z,42.18
2019-01-10T09:14:15.475Z,42.60
2019-01-10T09:16:42.777Z,42.68
2019-01-10T09:19:10.485Z,42.47
2019-01-10T09:21:38.498Z,42.25
2019-01-10T09:24:06.245Z,42.17
2019-01-10T09:26:37.601Z,41.72
2019-01-10T09:29:02.778Z,41.96
2019-01-10T09:31:30.246Z,41.67
2019-01-10T09:33:58.134Z,42.13
2019-01-10T09:36:25.401Z,41.38
2019-01-10T09:38:53.346Z,42.13
2019-01-10T09:41:20.613Z,41.93
2019-01-10T09:43:48.961Z,42.03
2019-01-10T09:46:16.541Z,42.08
2019-01-10T09:48:43.904Z,41.98
2019-01-10T09:51:12.268Z,42.58
2019-01-10T09:53:39.483Z,42.60
2019-01-10T09:56:06.765Z,42.83
2019-01-10T09:58:34.105Z,42.99
2019-01-10T10:01:01.541Z,42.79
2019-01-10T10:03:29.696Z,42.78
2019-01-10T10:05:56.968Z,42.42
2019-01-10T10:08:25.038Z,42.41
2019-01-10T10:10:52.489Z,42.05
2019-01-10T10:13:20.053Z,41.92
2019-01-10T10:15:52.418Z,41.56
2019-01-10T10:20:58.100Z,42.05
2019-01-10T10:23:26.986Z,42.32
2019-01-10T10:25:54.483Z,42.50
2019-01-10T10:28:22.828Z,42.53
2019-01-10T10:30:50.877Z,42.43
2019-01-10T10:33:18.246Z,42.76
2019-01-10T10:35:45.795Z,42.76
2019-01-10T10:38:13.457Z,42.56
2019-01-10T10:40:40.736Z,42.78
2019-01-10T10:43:07.854Z,42.58
2019-01-10T10:45:35.245Z,42.13
2019-01-10T10:48:02.495Z,42.13
2019-01-10T10:50:29.862Z,42.05
2019-01-10T10:52:57.326Z,41.99
2019-01-10T10:55:24.702Z,41.99
2019-01-10T10:57:51.977Z,41.59
2019-01-10T11:00:23.241Z,41.30
2019-01-10T11:02:51.388Z,41.44
2019-01-10T11:05:19.402Z,41.98
2019-01-10T11:07:47.245Z,42.33
2019-01-10T11:10:16.487Z,42.22
2019-01-10T11:12:43.752Z,42.65
2019-01-10T11:15:10.906Z,42.59
2019-01-10T11:17:38.242Z,42.76
2019-01-10T11:20:09.795Z,42.71
2019-01-10T11:22:37.801Z,42.76
2019-01-10T11:25:08.964Z,42.50
2019-01-10T11:27:37.242Z,42.71
2019-01-10T11:30:05.792Z,42.48
2019-01-10T11:32:33.241Z,42.28
2019-01-10T11:35:00.486Z,42.05
2019-01-10T11:37:28.086Z,41.90
2019-01-10T11:39:55.697Z,41.62
2019-01-10T11:42:22.686Z,41.76
2019-01-10T11:44:49.923Z,41.57
2019-01-10T11:47:17.695Z,42.00
2019-01-10T11:49:44.593Z,41.97
2019-01-10T11:52:11.859Z,42.12
2019-01-10T11:54:39.854Z,42.24
2019-01-10T11:57:07.750Z,42.17
2019-01-10T11:59:37.368Z,42.17
2019-01-10T12:02:04.887Z,42.38
2019-01-10T12:04:32.592Z,41.99
2019-01-10T12:06:59.880Z,41.99
2019-01-10T12:09:27.425Z,42.54
2019-01-10T12:11:55.240Z,42.54
2019-01-10T12:14:23.335Z,42.19
2019-01-10T12:16:51.250Z,42.13
2019-01-10T12:19:18.818Z,41.81
2019-01-10T12:21:46.435Z,41.82
2019-01-10T12:24:14.748Z,41.46
2019-01-10T12:26:41.603Z,41.60
2019-01-10T12:29:09.462Z,41.88
2019-01-10T12:31:37.383Z,41.88
2019-01-10T12:34:05.202Z,41.88
2019-01-10T12:36:33.251Z,41.69
2019-01-10T12:39:00.725Z,41.77
2019-01-10T12:41:27.872Z,41.93
2019-01-10T12:43:55.246Z,41.95
2019-01-10T12:46:22.786Z,42.29
2019-01-10T12:48:50.438Z,42.30
2019-01-10T12:51:18.006Z,41.97
2019-01-10T12:53:45.608Z,41.92
2019-01-10T12:56:13.243Z,41.92
2019-01-10T12:58:40.821Z,42.03
2019-01-10T13:01:08.139Z,41.84
2019-01-10T13:03:35.420Z,41.94
2019-01-10T13:06:03.048Z,41.47
2019-01-10T13:08:30.693Z,41.67
2019-01-10T13:10:57.646Z,41.46
2019-01-10T13:13:25.617Z,40.81
2019-01-10T13:15:52.851Z,41.32
2019-01-10T13:18:20.489Z,41.90
2019-01-10T13:20:47.983Z,41.90
2019-01-10T13:23:15.813Z,41.81
2019-01-10T13:25:43.514Z,41.97
2019-01-10T13:28:11.430Z,41.83
2019-01-10T13:30:38.710Z,41.89
2019-01-10T13:33:05.820Z,41.93
2019-01-10T13:35:33.746Z,42.04
2019-01-10T13:38:00.893Z,42.07
2019-01-10T13:40:28.872Z,42.14
2019-01-10T13:42:56.446Z,42.04
2019-01-10T13:45:24.105Z,42.04
2019-01-10T13:47:51.411Z,41.92
2019-01-10T13:50:25.764Z,41.81
2019-01-10T13:52:52.811Z,41.48
2019-01-10T13:55:20.153Z,41.30
2019-01-10T13:57:47.369Z,41.47
2019-01-10T14:00:21.614Z,40.78
2019-01-10T14:02:48.876Z,41.59
2019-01-10T14:05:17.061Z,41.96
2019-01-10T14:07:44.524Z,41.96
2019-01-10T14:10:13.125Z,42.18
2019-01-10T14:12:41.400Z,41.87
2019-01-10T14:15:11.938Z,42.11
2019-01-10T14:17:39.245Z,41.96
2019-01-10T14:20:08.331Z,41.72
2019-01-10T14:22:35.901Z,42.25
2019-01-10T14:25:03.966Z,42.07
2019-01-10T14:27:31.500Z,42.07
2019-01-10T14:29:58.745Z,41.79
2019-01-10T14:32:25.677Z,41.61
2019-01-10T14:34:53.486Z,41.40
2019-01-10T14:37:21.235Z,41.12
2019-01-10T14:39:49.011Z,40.89
2019-01-10T14:42:16.567Z,41.26
2019-01-10T14:44:44.027Z,41.57
2019-01-10T14:47:11.639Z,41.62
2019-01-10T14:49:39.247Z,42.17
2019-01-10T14:52:06.459Z,41.73
2019-01-10T14:54:34.674Z,41.96
2019-01-10T14:57:01.980Z,42.26
2019-01-10T14:59:29.440Z,42.18
2019-01-10T15:01:56.748Z,42.35
2019-01-10T15:04:23.596Z,42.48
2019-01-10T15:06:51.740Z,42.30
2019-01-10T15:09:19.698Z,42.55
2019-01-10T15:11:47.297Z,42.31
2019-01-10T15:14:16.327Z,42.03
2019-01-10T15:16:43.971Z,42.00
2019-01-10T15:19:11.603Z,41.57
2019-01-10T15:21:39.204Z,40.91
2019-01-10T15:24:06.500Z,40.90
2019-01-10T15:26:34.778Z,40.94
2019-01-10T15:29:01.927Z,41.15
2019-01-10T15:31:29.456Z,41.82
2019-01-10T15:33:57.249Z,41.83
2019-01-10T15:36:25.070Z,41.89
2019-01-10T15:38:52.874Z,41.81
2019-01-10T15:41:20.846Z,42.00
2019-01-10T15:43:48.704Z,42.00
2019-01-10T15:46:15.948Z,41.96
2019-01-10T15:48:43.601Z,42.44
2019-01-10T15:51:11.251Z,42.10
2019-01-10T15:53:39.248Z,42.28
2019-01-10T15:56:07.061Z,42.21
2019-01-10T15:58:35.432Z,41.87
2019-01-10T16:01:02.705Z,41.88
2019-01-10T16:03:30.224Z,41.60
2019-01-10T16:05:57.795Z,41.18
2019-01-10T16:08:25.929Z,41.05
2019-01-10T16:10:53.531Z,41.31
2019-01-10T16:13:21.468Z,40.80
2019-01-10T16:15:48.727Z,41.69
2019-01-10T16:18:15.608Z,42.05
2019-01-10T16:20:43.609Z,41.91
2019-01-10T16:23:10.834Z,42.01
2019-01-10T16:25:38.737Z,42.28
2019-01-10T16:28:05.612Z,42.39
2019-01-10T16:30:33.249Z,42.24
2019-01-10T16:33:00.796Z,42.42
2019-01-10T16:35:28.777Z,42.24
2019-01-10T16:37:56.114Z,42.37
2019-01-10T16:40:23.452Z,42.42
2019-01-10T16:42:51.379Z,42.42
2019-01-10T16:45:28.480Z,42.11
2019-01-10T16:47:56.429Z,42.08
2019-01-10T16:50:24.069Z,42.16
2019-01-10T16:52:51.635Z,41.49
2019-01-10T16:55:18.886Z,40.74
2019-01-10T16:57:46.248Z,41.83
2019-01-10T17:00:39.689Z,41.83
2019-01-10T17:03:07.614Z,41.92
2019-01-10T17:05:35.020Z,42.19
2019-01-10T17:08:02.604Z,42.08
2019-01-10T17:10:29.921Z,42.10
2019-01-10T17:12:57.500Z,42.17
2019-01-10T17:15:25.334Z,42.19
2019-01-10T17:17:53.516Z,41.72
2019-01-10T17:20:22.945Z,41.40
2019-01-10T17:22:50.577Z,41.44
2019-01-10T17:25:19.467Z,41.75
2019-01-10T17:27:47.327Z,41.16
2019-01-10T17:30:23.795Z,41.02
2019-01-10T17:32:50.627Z,40.82
2019-01-10T17:35:20.224Z,41.33
2019-01-10T17:37:47.911Z,41.79
2019-01-10T17:40:17.017Z,41.77
2019-01-10T17:42:44.873Z,41.77
2019-01-10T17:45:15.411Z,41.70
2019-01-10T17:47:44.207Z,41.70
2019-01-10T17:50:13.612Z,41.73
2019-01-10T17:52:40.905Z,41.88
2019-01-10T17:55:08.267Z,42.16
2019-01-10T17:57:35.482Z,41.83
2019-01-10T18:00:03.101Z,41.75
2019-01-10T18:02:30.376Z,41.43
2019-01-10T18:04:58.440Z,41.40
2019-01-10T18:07:26.326Z,40.71
2019-01-10T18:09:53.604Z,40.84
2019-01-10T18:12:20.911Z,40.86
2019-01-10T18:14:49.070Z,41.28
2019-01-10T18:17:16.533Z,41.49
2019-01-10T18:19:44.330Z,41.48
2019-01-10T18:22:12.014Z,41.55
2019-01-10T18:24:39.375Z,41.67
2019-01-10T18:27:06.620Z,41.75
2019-01-10T18:29:33.913Z,42.07
2019-01-10T18:32:01.261Z,42.07
2019-01-10T18:34:28.593Z,42.07
2019-01-10T18:36:55.845Z,42.18
2019-01-10T18:39:23.220Z,42.67
2019-01-10T18:41:50.599Z,43.44
2019-01-10T18:44:17.848Z,42.94
2019-01-10T18:46:45.442Z,43.52
2019-01-10T18:49:13.396Z,44.17
2019-01-10T18:51:41.018Z,43.01
2019-01-10T18:54:08.575Z,42.87
2019-01-10T18:56:35.857Z,43.06
2019-01-10T18:59:09.240Z,42.19
2019-01-10T19:01:36.455Z,41.56
2019-01-10T19:04:03.804Z,42.15
2019-01-10T19:06:31.001Z,42.42
2019-01-10T19:08:58.738Z,42.12
2019-01-10T19:11:25.756Z,42.68
2019-01-10T19:13:53.813Z,42.51
2019-01-10T19:16:21.438Z,42.43
2019-01-10T19:18:50.253Z,42.52
2019-01-10T19:21:17.791Z,42.27
2019-01-10T19:23:45.611Z,42.72
2019-01-10T19:26:13.498Z,42.62
2019-01-10T19:28:41.060Z,42.39
2019-01-10T19:31:08.427Z,42.37
2019-01-10T19:33:35.858Z,42.93
2019-01-10T19:36:03.713Z,43.91
2019-01-10T19:38:30.606Z,43.91
2019-01-10T19:40:58.284Z,43.48
2019-01-10T19:43:25.783Z,44.10
2019-01-10T19:45:52.650Z,44.05
2019-01-10T19:48:19.971Z,44.35
2019-01-10T19:50:49.240Z,44.07
2019-01-10T19:53:17.235Z,44.21
2019-01-10T19:55:44.954Z,44.39
2019-01-10T19:58:12.428Z,44.39
2019-01-10T20:00:43.595Z,44.44
2019-01-10T20:03:11.478Z,44.84
2019-01-10T20:05:39.042Z,45.44
2019-01-10T20:08:06.378Z,44.89
2019-01-10T20:10:33.956Z,45.16
2019-01-10T20:13:01.250Z,45.14
2019-01-10T20:15:28.487Z,44.81
2019-01-10T20:17:56.245Z,44.95
2019-01-10T20:20:36.240Z,45.03
2019-01-10T20:23:06.489Z,44.76
2019-01-10T20:25:34.242Z,44.17
2019-01-10T20:28:01.732Z,44.09
2019-01-10T20:30:28.852Z,44.29
2019-01-10T20:32:56.826Z,44.72
2019-01-10T20:35:24.480Z,44.72
2019-01-10T20:37:51.908Z,44.74
2019-01-10T20:40:19.468Z,44.65
2019-01-10T20:42:47.241Z,44.72
2019-01-10T20:45:14.760Z,43.95
2019-01-10T20:47:42.064Z,43.64
2019-01-10T20:50:09.678Z,43.60
2019-01-10T20:52:37.702Z,43.48
2019-01-10T20:55:05.704Z,43.31
2019-01-10T20:57:33.272Z,42.82
2019-01-10T21:00:01.343Z,43.09
2019-01-10T21:02:28.893Z,42.75
2019-01-10T21:04:56.897Z,42.17
2019-01-10T21:07:24.496Z,42.08
2019-01-10T21:09:52.045Z,42.08
2019-01-10T21:12:19.369Z,42.77
2019-01-10T21:14:46.761Z,43.50
2019-01-10T21:17:13.590Z,43.59
2019-01-10T21:19:41.241Z,43.93
2019-01-10T21:22:08.490Z,44.08
2019-01-10T21:24:36.356Z,44.17
2019-01-10T21:27:03.596Z,44.49
2019-01-10T21:29:31.492Z,44.37
2019-01-10T21:31:59.046Z,43.96
2019-01-10T21:34:26.508Z,44.34
2019-01-10T21:36:55.548Z,44.44
2019-01-10T21:39:23.395Z,44.41
2019-01-10T21:41:51.237Z,44.15
2019-01-10T21:44:19.678Z,43.81
2019-01-10T21:46:47.240Z,43.51
2019-01-10T21:49:14.817Z,42.91
2019-01-10T21:51:42.795Z,42.88
2019-01-10T21:54:09.714Z,42.27
2019-01-10T21:56:36.838Z,42.97
2019-01-10T21:59:04.319Z,43.85
2019-01-10T22:01:31.611Z,43.85
2019-01-10T22:04:00.321Z,43.72
2019-01-10T22:06:28.239Z,43.97
2019-01-10T22:08:55.806Z,44.00
2019-01-10T22:11:23.335Z,44.08
2019-01-10T22:13:50.619Z,44.24
2019-01-10T22:16:17.877Z,44.15
2019-01-10T22:18:45.379Z,44.47
2019-01-10T22:21:12.865Z,44.57
2019-01-10T22:23:40.234Z,44.38
2019-01-10T22:26:08.848Z,44.38
2019-01-10T22:28:37.249Z,44.10
2019-01-10T22:31:04.651Z,43.58
2019-01-10T22:33:32.526Z,42.64
2019-01-10T22:36:01.248Z,44.11
2019-01-10T22:38:29.234Z,44.07
2019-01-10T22:40:56.808Z,43.11
2019-01-10T22:43:57.234Z,44.19
2019-01-10T22:46:24.438Z,43.99
2019-01-10T22:48:51.868Z,44.36
2019-01-10T22:51:19.593Z,44.63
2019-01-10T22:53:47.700Z,44.63
2019-01-10T22:56:15.387Z,44.47
2019-01-10T22:58:42.815Z,43.97
2019-01-10T23:01:46.965Z,43.61
2019-01-10T23:04:18.872Z,43.57
2019-01-10T23:06:46.599Z,43.23
2019-01-10T23:09:13.839Z,43.23
2019-01-10T23:11:41.818Z,43.56
2019-01-10T23:14:09.445Z,44.15
2019-01-10T23:16:37.419Z,43.92
2019-01-10T23:19:05.940Z,44.24
2019-01-10T23:21:39.033Z,44.48
2019-01-10T23:24:15.056Z,44.34
2019-01-10T23:26:53.245Z,44.31
2019-01-10T23:29:20.973Z,43.89
2019-01-10T23:31:49.140Z,43.33
2019-01-10T23:34:16.944Z,43.04
2019-01-10T23:36:50.744Z,42.42
2019-01-10T23:39:21.029Z,44.56
2019-01-10T23:41:50.809Z,43.42
2019-01-10T23:49:12.238Z,43.14
2019-01-10T23:51:39.987Z,43.46
2019-01-10T23:54:07.755Z,43.47
2019-01-10T23:56:34.612Z,43.43
2019-01-10T23:59:02.246Z,43.16
